Kaio Maru — JD2067 — position and weather

sailwx.info

Track history (hours):
 
Tides and Currents Weather Stations Pressure Air Temp Water Temp Dewpoint Dewpoint Depression Visibility Wind Speed Wind Dir Waves Ship Positions

Kaio Maru

Last reported at 2017-Nov-23 16:30 UTC. Time now 2017-Nov-23 16:51 UTC.
Position N 35°38' E 139°46'.

Length 36 m; draft 3.2 m.

Type: Tug. MMSI: 431001455.

Date/timePositionNaut miles runAvg speedWind from/ knotsBaromVisibWave heightAir tempDewpointWater temp
2017-Nov-23 16:30N 35°38' E 139°46'0 0.0
2017-Nov-23 16:00N 35°38' E 139°46'0 0.0
2017-Nov-23 15:30N 35°38' E 139°46'0 0.0
2017-Nov-23 15:01N 35°38' E 139°46'0 0.0
2017-Nov-23 14:30N 35°38' E 139°46'0 0.0
2017-Nov-23 14:01N 35°38' E 139°46'0 0.0
2017-Nov-23 13:31N 35°38' E 139°46'0 0.0
2017-Nov-23 13:01N 35°38' E 139°46'0 0.0
2017-Nov-23 12:31N 35°38' E 139°46'0 0.0
2017-Nov-23 12:00N 35°38' E 139°46'0 0.0
2017-Nov-23 11:31N 35°38' E 139°46'0 0.0
2017-Nov-23 11:01N 35°38' E 139°46'0 0.0
2017-Nov-23 10:31N 35°38' E 139°46'0 0.0
2017-Nov-23 10:00N 35°38' E 139°46'0 0.0
2017-Nov-23 09:31N 35°38' E 139°46'0 0.0
2017-Nov-23 09:00N 35°38' E 139°46'0 0.1
2017-Nov-23 08:31N 35°38' E 139°45'0 0.1
2017-Nov-23 08:01N 35°38' E 139°46'0 0.0
2017-Nov-23 07:31N 35°38' E 139°46'0 0.0
2017-Nov-23 07:01N 35°38' E 139°46'0 0.0
2017-Nov-23 06:30N 35°38' E 139°46'0 0.0
2017-Nov-23 06:00N 35°38' E 139°46'0 0.0
2017-Nov-23 05:31N 35°38' E 139°46'0 0.0
2017-Nov-23 05:01N 35°38' E 139°46'0 0.0
2017-Nov-23 04:30N 35°38' E 139°46'0 0.0
2017-Nov-23 04:00N 35°38' E 139°46'0 0.0
2017-Nov-23 03:30N 35°38' E 139°46'0 0.0
2017-Nov-23 03:01N 35°38' E 139°46'0 0.0
2017-Nov-23 02:31N 35°38' E 139°46'0 0.0
2017-Nov-23 02:01N 35°38' E 139°46'0 0.0
2017-Nov-23 01:30N 35°38' E 139°46'0 0.0
2017-Nov-23 01:00N 35°38' E 139°46'0 0.0
2017-Nov-23 00:31N 35°38' E 139°46'0 0.0
2017-Nov-23 00:01N 35°38' E 139°46'1 2.3
2017-Nov-22 23:31N 35°37' E 139°46'1 1.5
2017-Nov-22 23:00N 35°36' E 139°46'1 2.9
2017-Nov-22 22:30N 35°35' E 139°47'4 8.0
2017-Nov-22 22:00N 35°33' E 139°51'1 2.1
2017-Nov-22 21:30N 35°34' E 139°50'4 7.3
2017-Nov-22 21:01N 35°36' E 139°47'1 2.3
2017-Nov-22 20:31N 35°37' E 139°46'0 0.4
2017-Nov-22 20:01N 35°37' E 139°46'1 2.6
2017-Nov-22 19:30N 35°38' E 139°46'  
2017-Nov-20 00:30N 35°38' E 139°45'0 0.0
2017-Nov-20 00:01N 35°38' E 139°45'0 0.0
2017-Nov-19 23:30N 35°38' E 139°45'3 5.0
2017-Nov-19 23:00N 35°36' E 139°48'0 0.8
2017-Nov-19 22:30N 35°37' E 139°48'2 4.8
2017-Nov-19 22:01N 35°34' E 139°48'0 0.8
2017-Nov-19 21:31N 35°35' E 139°48'3 6.4
2017-Nov-19 21:00N 35°37' E 139°46'1 2.0
2017-Nov-19 20:31N 35°36' E 139°46'0 0.2
2017-Nov-19 20:00N 35°36' E 139°46'2 4.4
2017-Nov-19 19:31N 35°35' E 139°48'2 4.0
2017-Nov-19 19:00N 35°36' E 139°46'2 4.1
2017-Nov-19 18:31N 35°38' E 139°45'0 0.0
2017-Nov-19 18:00N 35°38' E 139°45'0 0.0
2017-Nov-19 17:30N 35°38' E 139°45'0 0.0
2017-Nov-19 17:00N 35°38' E 139°45'0 0.0
2017-Nov-19 16:31N 35°38' E 139°45'0 0.0
2017-Nov-19 16:00N 35°38' E 139°45'0 0.0
2017-Nov-19 15:31N 35°38' E 139°45'0 0.0
2017-Nov-19 15:00N 35°38' E 139°45'0 0.0
2017-Nov-19 14:31N 35°38' E 139°45'0 0.0
2017-Nov-19 14:00N 35°38' E 139°45'0 0.0
2017-Nov-19 13:30N 35°38' E 139°45'0 0.0
2017-Nov-19 13:01N 35°38' E 139°45'0 0.0
2017-Nov-19 12:31N 35°38' E 139°45'0 0.0
2017-Nov-19 12:01N 35°38' E 139°45'0 0.0
2017-Nov-19 11:30N 35°38' E 139°45'0 0.0
2017-Nov-19 11:00N 35°38' E 139°45'0 0.0
2017-Nov-19 10:30N 35°38' E 139°45'0 0.0
2017-Nov-19 10:01N 35°38' E 139°45'0 0.0
2017-Nov-19 09:31N 35°38' E 139°45'0 0.0
2017-Nov-19 09:01N 35°38' E 139°45'0 0.0
2017-Nov-19 08:31N 35°38' E 139°45'0 0.0
2017-Nov-19 08:01N 35°38' E 139°45'0 0.0
2017-Nov-19 07:31N 35°38' E 139°45'0 0.0
2017-Nov-19 07:01N 35°38' E 139°45'0 0.0
2017-Nov-19 06:30N 35°38' E 139°45'0 0.0
2017-Nov-19 06:00N 35°38' E 139°45'0 0.1
2017-Nov-19 05:31N 35°38' E 139°45'0 0.1
2017-Nov-19 05:00N 35°38' E 139°45'0 0.0
2017-Nov-19 04:31N 35°38' E 139°45'0 0.0
2017-Nov-19 04:01N 35°38' E 139°45'0 0.0
2017-Nov-19 03:31N 35°38' E 139°45'0 0.0
2017-Nov-19 03:00N 35°38' E 139°45'0 0.0
2017-Nov-19 02:31N 35°38' E 139°45'0 0.0
2017-Nov-19 02:00N 35°38' E 139°45'0 0.0
2017-Nov-19 01:30N 35°38' E 139°45'0 0.0
2017-Nov-19 01:01N 35°38' E 139°45'0 0.0
2017-Nov-19 00:30N 35°38' E 139°45'0 0.0
2017-Nov-19 00:00N 35°38' E 139°45'0 0.0
2017-Nov-18 23:30N 35°38' E 139°45'2 3.7
2017-Nov-18 22:59N 35°36' E 139°46'2 2.9
2017-Nov-18 22:23N 35°35' E 139°47'1 1.9
2017-Nov-18 21:58N 35°36' E 139°47'3 0.3
2017-Nov-18 12:01N 35°38' E 139°45'0 0.0
2017-Nov-18 11:36N 35°38' E 139°45'0 0.2
2017-Nov-18 09:09N 35°38' E 139°46'0 1.1
2017-Nov-18 09:00N 35°38' E 139°46'0 0.3
2017-Nov-18 08:31N 35°38' E 139°46'2 4.8
2017-Nov-18 08:00N 35°35' E 139°47'3 1.4
2017-Nov-18 05:55N 35°38' E 139°46'0 0.0
2017-Nov-18 03:14N 35°38' E 139°46'0 0.0
2017-Nov-18 02:58N 35°38' E 139°46'0 0.0
2017-Nov-18 02:28N 35°38' E 139°46'0 0.0
2017-Nov-18 01:55N 35°38' E 139°46'0 0.0
2017-Nov-18 01:20N 35°38' E 139°46'0 0.0
2017-Nov-18 01:00N 35°38' E 139°46'0 0.0
2017-Nov-18 00:24N 35°38' E 139°46'0 0.0
2017-Nov-17 23:57N 35°38' E 139°46'1 3.4
2017-Nov-17 23:30N 35°37' E 139°46'1 2.0
2017-Nov-17 22:57N 35°36' E 139°46'1 3.3
2017-Nov-17 22:30N 35°35' E 139°48'2 3.4
2017-Nov-17 21:59N 35°34' E 139°50'3 6.9
2017-Nov-17 21:30N 35°36' E 139°47'2 0.1
2017-Nov-17 07:56N 35°37' E 139°46'0 0.1
2017-Nov-17 03:36N 35°38' E 139°46'1 9.8
2017-Nov-17 03:30N 35°37' E 139°46'1 1.5
2017-Nov-17 03:00N 35°37' E 139°47'0 0.6
2017-Nov-17 02:30N 35°37' E 139°46'2 1.2
2017-Nov-17 01:00N 35°38' E 139°46'0 0.0
2017-Nov-16 13:21N 35°38' E 139°46'2 6.4
2017-Nov-16 13:00N 35°36' E 139°47'0 0.6
2017-Nov-16 12:30N 35°36' E 139°47'2 4.8
2017-Nov-16 12:01N 35°34' E 139°48'0 0.4
2017-Nov-16 11:30N 35°34' E 139°48'2 4.7
2017-Nov-16 11:00N 35°36' E 139°47'1 1.1
2017-Nov-16 10:30N 35°37' E 139°47'0 0.2
2017-Nov-16 10:00N 35°37' E 139°47'3 5.4
2017-Nov-16 09:30N 35°34' E 139°49'3 5.7
2017-Nov-16 08:59N 35°33' E 139°52'1 1.2
2017-Nov-16 08:28N 35°34' E 139°53'511.3
2017-Nov-16 08:00N 35°36' E 139°47'3 0.9
2017-Nov-16 04:54N 35°38' E 139°46'0 0.0
2017-Nov-16 04:29N 35°38' E 139°46'0 0.0
2017-Nov-16 03:59N 35°38' E 139°46'0 0.0
2017-Nov-16 02:31N 35°38' E 139°46'0 0.0
2017-Nov-16 01:33N 35°38' E 139°46'0 0.0
2017-Nov-16 00:46N 35°38' E 139°46'0 0.0
2017-Nov-16 00:30N 35°38' E 139°46'0 0.0
2017-Nov-15 23:42N 35°38' E 139°46'0 0.0
2017-Nov-15 21:34N 35°38' E 139°46'0 0.1
2017-Nov-15 21:30N 35°38' E 139°46'0 0.0
2017-Nov-15 20:51N 35°38' E 139°46'0 0.0
2017-Nov-15 10:04N 35°38' E 139°46'0 0.0
2017-Nov-15 01:20N 35°38' E 139°46'0 0.0
2017-Nov-15 00:58N 35°38' E 139°46'0 0.0
2017-Nov-15 00:28N 35°38' E 139°46'0 0.0
2017-Nov-14 23:58N 35°38' E 139°46'0 0.0
2017-Nov-14 23:29N 35°38' E 139°46'0 0.4
2017-Nov-14 22:52N 35°38' E 139°46'1 3.2
2017-Nov-14 22:29N 35°37' E 139°46'3 5.3
2017-Nov-14 22:00N 35°35' E 139°48'1 0.6
2017-Nov-14 20:34N 35°36' E 139°47'110.1
2017-Nov-14 20:30N 35°36' E 139°46'0 0.9
2017-Nov-14 20:00N 35°37' E 139°46'2 0.2
2017-Nov-14 09:32N 35°38' E 139°46'0 0.0
2017-Nov-14 04:21N 35°38' E 139°46'0 0.0
2017-Nov-14 03:48N 35°38' E 139°46'0 0.0
2017-Nov-14 03:12N 35°38' E 139°46'0 0.0
2017-Nov-14 02:57N 35°38' E 139°46'0 0.0
2017-Nov-14 01:50N 35°38' E 139°46'0 0.4
2017-Nov-14 01:23N 35°38' E 139°46'2 4.5
2017-Nov-14 01:00N 35°37' E 139°47'1 2.0
2017-Nov-14 00:30N 35°36' E 139°47'1 2.8
2017-Nov-14 00:01N 35°35' E 139°48'  
Track history (hours):
 
Tides and Currents Weather Stations Pressure Air Temp Water Temp Dewpoint Dewpoint Depression Visibility Wind Speed Wind Dir Waves Ship Positions

Kaio Maru

Last reported at 2017-Nov-23 16:30 UTC. Time now 2017-Nov-23 16:51 UTC.
Position N 35°38' E 139°46'.

Length 36 m; draft 3.2 m.

Type: Tug. MMSI: 431001455.

Date/timePositionNaut miles runAvg speedWind from/ knotsBaromVisibWave heightAir tempDewpointWater temp
2017-Nov-23 16:30N 35°38' E 139°46'0 0.0
2017-Nov-23 16:00N 35°38' E 139°46'0 0.0
2017-Nov-23 15:30N 35°38' E 139°46'0 0.0
2017-Nov-23 15:01N 35°38' E 139°46'0 0.0
2017-Nov-23 14:30N 35°38' E 139°46'0 0.0
2017-Nov-23 14:01N 35°38' E 139°46'0 0.0
2017-Nov-23 13:31N 35°38' E 139°46'0 0.0
2017-Nov-23 13:01N 35°38' E 139°46'0 0.0
2017-Nov-23 12:31N 35°38' E 139°46'0 0.0
2017-Nov-23 12:00N 35°38' E 139°46'0 0.0
2017-Nov-23 11:31N 35°38' E 139°46'0 0.0
2017-Nov-23 11:01N 35°38' E 139°46'0 0.0
2017-Nov-23 10:31N 35°38' E 139°46'0 0.0
2017-Nov-23 10:00N 35°38' E 139°46'0 0.0
2017-Nov-23 09:31N 35°38' E 139°46'0 0.0
2017-Nov-23 09:00N 35°38' E 139°46'0 0.1
2017-Nov-23 08:31N 35°38' E 139°45'0 0.1
2017-Nov-23 08:01N 35°38' E 139°46'0 0.0
2017-Nov-23 07:31N 35°38' E 139°46'0 0.0
2017-Nov-23 07:01N 35°38' E 139°46'0 0.0
2017-Nov-23 06:30N 35°38' E 139°46'0 0.0
2017-Nov-23 06:00N 35°38' E 139°46'0 0.0
2017-Nov-23 05:31N 35°38' E 139°46'0 0.0
2017-Nov-23 05:01N 35°38' E 139°46'0 0.0
2017-Nov-23 04:30N 35°38' E 139°46'0 0.0
2017-Nov-23 04:00N 35°38' E 139°46'0 0.0
2017-Nov-23 03:30N 35°38' E 139°46'0 0.0
2017-Nov-23 03:01N 35°38' E 139°46'0 0.0
2017-Nov-23 02:31N 35°38' E 139°46'0 0.0
2017-Nov-23 02:01N 35°38' E 139°46'0 0.0
2017-Nov-23 01:30N 35°38' E 139°46'0 0.0
2017-Nov-23 01:00N 35°38' E 139°46'0 0.0
2017-Nov-23 00:31N 35°38' E 139°46'0 0.0
2017-Nov-23 00:01N 35°38' E 139°46'1 2.3
2017-Nov-22 23:31N 35°37' E 139°46'1 1.5
2017-Nov-22 23:00N 35°36' E 139°46'1 2.9
2017-Nov-22 22:30N 35°35' E 139°47'4 8.0
2017-Nov-22 22:00N 35°33' E 139°51'1 2.1
2017-Nov-22 21:30N 35°34' E 139°50'4 7.3
2017-Nov-22 21:01N 35°36' E 139°47'1 2.3
2017-Nov-22 20:31N 35°37' E 139°46'0 0.4
2017-Nov-22 20:01N 35°37' E 139°46'1 2.6
2017-Nov-22 19:30N 35°38' E 139°46'  
2017-Nov-20 00:30N 35°38' E 139°45'0 0.0
2017-Nov-20 00:01N 35°38' E 139°45'0 0.0
2017-Nov-19 23:30N 35°38' E 139°45'3 5.0
2017-Nov-19 23:00N 35°36' E 139°48'0 0.8
2017-Nov-19 22:30N 35°37' E 139°48'2 4.8
2017-Nov-19 22:01N 35°34' E 139°48'0 0.8
2017-Nov-19 21:31N 35°35' E 139°48'3 6.4
2017-Nov-19 21:00N 35°37' E 139°46'1 2.0
2017-Nov-19 20:31N 35°36' E 139°46'0 0.2
2017-Nov-19 20:00N 35°36' E 139°46'2 4.4
2017-Nov-19 19:31N 35°35' E 139°48'2 4.0
2017-Nov-19 19:00N 35°36' E 139°46'2 4.1
2017-Nov-19 18:31N 35°38' E 139°45'0 0.0
2017-Nov-19 18:00N 35°38' E 139°45'0 0.0
2017-Nov-19 17:30N 35°38' E 139°45'0 0.0
2017-Nov-19 17:00N 35°38' E 139°45'0 0.0
2017-Nov-19 16:31N 35°38' E 139°45'0 0.0
2017-Nov-19 16:00N 35°38' E 139°45'0 0.0
2017-Nov-19 15:31N 35°38' E 139°45'0 0.0
2017-Nov-19 15:00N 35°38' E 139°45'0 0.0
2017-Nov-19 14:31N 35°38' E 139°45'0 0.0
2017-Nov-19 14:00N 35°38' E 139°45'0 0.0
2017-Nov-19 13:30N 35°38' E 139°45'0 0.0
2017-Nov-19 13:01N 35°38' E 139°45'0 0.0
2017-Nov-19 12:31N 35°38' E 139°45'0 0.0
2017-Nov-19 12:01N 35°38' E 139°45'0 0.0
2017-Nov-19 11:30N 35°38' E 139°45'0 0.0
2017-Nov-19 11:00N 35°38' E 139°45'0 0.0
2017-Nov-19 10:30N 35°38' E 139°45'0 0.0
2017-Nov-19 10:01N 35°38' E 139°45'0 0.0
2017-Nov-19 09:31N 35°38' E 139°45'0 0.0
2017-Nov-19 09:01N 35°38' E 139°45'0 0.0
2017-Nov-19 08:31N 35°38' E 139°45'0 0.0
2017-Nov-19 08:01N 35°38' E 139°45'0 0.0
2017-Nov-19 07:31N 35°38' E 139°45'0 0.0
2017-Nov-19 07:01N 35°38' E 139°45'0 0.0
2017-Nov-19 06:30N 35°38' E 139°45'0 0.0
2017-Nov-19 06:00N 35°38' E 139°45'0 0.1
2017-Nov-19 05:31N 35°38' E 139°45'0 0.1
2017-Nov-19 05:00N 35°38' E 139°45'0 0.0
2017-Nov-19 04:31N 35°38' E 139°45'0 0.0
2017-Nov-19 04:01N 35°38' E 139°45'0 0.0
2017-Nov-19 03:31N 35°38' E 139°45'0 0.0
2017-Nov-19 03:00N 35°38' E 139°45'0 0.0
2017-Nov-19 02:31N 35°38' E 139°45'0 0.0
2017-Nov-19 02:00N 35°38' E 139°45'0 0.0
2017-Nov-19 01:30N 35°38' E 139°45'0 0.0
2017-Nov-19 01:01N 35°38' E 139°45'0 0.0
2017-Nov-19 00:30N 35°38' E 139°45'0 0.0
2017-Nov-19 00:00N 35°38' E 139°45'0 0.0
2017-Nov-18 23:30N 35°38' E 139°45'2 3.7
2017-Nov-18 22:59N 35°36' E 139°46'2 2.9
2017-Nov-18 22:23N 35°35' E 139°47'1 1.9
2017-Nov-18 21:58N 35°36' E 139°47'3 0.3
2017-Nov-18 12:01N 35°38' E 139°45'0 0.0
2017-Nov-18 11:36N 35°38' E 139°45'0 0.2
2017-Nov-18 09:09N 35°38' E 139°46'0 1.1
2017-Nov-18 09:00N 35°38' E 139°46'0 0.3
2017-Nov-18 08:31N 35°38' E 139°46'2 4.8
2017-Nov-18 08:00N 35°35' E 139°47'3 1.4
2017-Nov-18 05:55N 35°38' E 139°46'0 0.0
2017-Nov-18 03:14N 35°38' E 139°46'0 0.0
2017-Nov-18 02:58N 35°38' E 139°46'0 0.0
2017-Nov-18 02:28N 35°38' E 139°46'0 0.0
2017-Nov-18 01:55N 35°38' E 139°46'0 0.0
2017-Nov-18 01:20N 35°38' E 139°46'0 0.0
2017-Nov-18 01:00N 35°38' E 139°46'0 0.0
2017-Nov-18 00:24N 35°38' E 139°46'0 0.0
2017-Nov-17 23:57N 35°38' E 139°46'1 3.4
2017-Nov-17 23:30N 35°37' E 139°46'1 2.0
2017-Nov-17 22:57N 35°36' E 139°46'1 3.3
2017-Nov-17 22:30N 35°35' E 139°48'2 3.4
2017-Nov-17 21:59N 35°34' E 139°50'3 6.9
2017-Nov-17 21:30N 35°36' E 139°47'2 0.1
2017-Nov-17 07:56N 35°37' E 139°46'0 0.1
2017-Nov-17 03:36N 35°38' E 139°46'1 9.8
2017-Nov-17 03:30N 35°37' E 139°46'1 1.5
2017-Nov-17 03:00N 35°37' E 139°47'0 0.6
2017-Nov-17 02:30N 35°37' E 139°46'2 1.2
2017-Nov-17 01:00N 35°38' E 139°46'0 0.0
2017-Nov-16 13:21N 35°38' E 139°46'2 6.4
2017-Nov-16 13:00N 35°36' E 139°47'0 0.6
2017-Nov-16 12:30N 35°36' E 139°47'2 4.8
2017-Nov-16 12:01N 35°34' E 139°48'0 0.4
2017-Nov-16 11:30N 35°34' E 139°48'2 4.7
2017-Nov-16 11:00N 35°36' E 139°47'1 1.1
2017-Nov-16 10:30N 35°37' E 139°47'0 0.2
2017-Nov-16 10:00N 35°37' E 139°47'3 5.4
2017-Nov-16 09:30N 35°34' E 139°49'3 5.7
2017-Nov-16 08:59N 35°33' E 139°52'1 1.2
2017-Nov-16 08:28N 35°34' E 139°53'511.3
2017-Nov-16 08:00N 35°36' E 139°47'3 0.9
2017-Nov-16 04:54N 35°38' E 139°46'0 0.0
2017-Nov-16 04:29N 35°38' E 139°46'0 0.0
2017-Nov-16 03:59N 35°38' E 139°46'0 0.0
2017-Nov-16 02:31N 35°38' E 139°46'0 0.0
2017-Nov-16 01:33N 35°38' E 139°46'0 0.0
2017-Nov-16 00:46N 35°38' E 139°46'0 0.0
2017-Nov-16 00:30N 35°38' E 139°46'0 0.0
2017-Nov-15 23:42N 35°38' E 139°46'0 0.0
2017-Nov-15 21:34N 35°38' E 139°46'0 0.1
2017-Nov-15 21:30N 35°38' E 139°46'0 0.0
2017-Nov-15 20:51N 35°38' E 139°46'0 0.0
2017-Nov-15 10:04N 35°38' E 139°46'0 0.0
2017-Nov-15 01:20N 35°38' E 139°46'0 0.0
2017-Nov-15 00:58N 35°38' E 139°46'0 0.0
2017-Nov-15 00:28N 35°38' E 139°46'0 0.0
2017-Nov-14 23:58N 35°38' E 139°46'0 0.0
2017-Nov-14 23:29N 35°38' E 139°46'0 0.4
2017-Nov-14 22:52N 35°38' E 139°46'1 3.2
2017-Nov-14 22:29N 35°37' E 139°46'3 5.3
2017-Nov-14 22:00N 35°35' E 139°48'1 0.6
2017-Nov-14 20:34N 35°36' E 139°47'110.1
2017-Nov-14 20:30N 35°36' E 139°46'0 0.9
2017-Nov-14 20:00N 35°37' E 139°46'2 0.2
2017-Nov-14 09:32N 35°38' E 139°46'0 0.0
2017-Nov-14 04:21N 35°38' E 139°46'0 0.0
2017-Nov-14 03:48N 35°38' E 139°46'0 0.0
2017-Nov-14 03:12N 35°38' E 139°46'0 0.0
2017-Nov-14 02:57N 35°38' E 139°46'0 0.0
2017-Nov-14 01:50N 35°38' E 139°46'0 0.4
2017-Nov-14 01:23N 35°38' E 139°46'2 4.5
2017-Nov-14 01:00N 35°37' E 139°47'1 2.0
2017-Nov-14 00:30N 35°36' E 139°47'1 2.8
2017-Nov-14 00:01N 35°35' E 139°48'  

Dump ship's entire track history